createdAt,value
2022-08-26T00:01:54.564Z,8.90
2022-08-26T00:04:24.983Z,9.75
2022-08-26T00:06:54.045Z,9.65
2022-08-26T00:09:22.242Z,8.95
2022-08-26T00:11:49.679Z,10.60
2022-08-26T00:14:18.831Z,7.57
2022-08-26T00:16:48.237Z,9.38
2022-08-26T00:19:17.938Z,7.13
2022-08-26T00:21:48.673Z,8.27
2022-08-26T00:24:21.701Z,7.70
2022-08-26T00:26:50.097Z,7.63
2022-08-26T00:29:21.318Z,10.88
2022-08-26T00:31:50.238Z,10.82
2022-08-26T00:34:19.506Z,6.20
2022-08-26T00:36:47.876Z,8.38
2022-08-26T00:39:20.157Z,8.50
2022-08-26T00:41:48.365Z,8.10
2022-08-26T00:44:16.130Z,9.32
2022-08-26T00:46:49.832Z,10.00
2022-08-26T00:49:19.201Z,5.68
2022-08-26T00:51:50.128Z,7.60
2022-08-26T00:54:18.206Z,9.07
2022-08-26T00:56:53.420Z,7.25
2022-08-26T00:59:21.226Z,6.82
2022-08-26T01:01:49.147Z,8.70
2022-08-26T01:04:19.267Z,12.55
2022-08-26T01:06:47.148Z,9.27
2022-08-26T01:09:14.997Z,7.65
2022-08-26T01:11:42.781Z,7.25
2022-08-26T01:14:12.386Z,9.50
2022-08-26T01:16:40.065Z,7.95
2022-08-26T01:19:18.549Z,8.13
2022-08-26T01:21:49.239Z,8.68
2022-08-26T01:24:17.667Z,9.75
2022-08-26T01:26:45.698Z,8.27
2022-08-26T01:29:18.924Z,7.40
2022-08-26T01:31:55.227Z,7.45
2022-08-26T01:34:25.294Z,10.15
2022-08-26T01:36:58.619Z,9.52
2022-08-26T01:39:26.363Z,10.02
2022-08-26T01:41:56.907Z,8.43
2022-08-26T01:44:25.992Z,7.57
2022-08-26T01:46:54.153Z,8.73
2022-08-26T01:49:22.562Z,6.07
2022-08-26T01:51:51.492Z,6.22
2022-08-26T01:54:20.670Z,5.72
2022-08-26T01:56:51.238Z,9.38
2022-08-26T01:59:20.239Z,7.63
2022-08-26T02:01:48.898Z,7.00
2022-08-26T02:04:20.955Z,6.55
2022-08-26T02:06:49.391Z,9.50
2022-08-26T02:09:17.828Z,6.75
2022-08-26T02:11:45.545Z,6.53
2022-08-26T02:14:20.991Z,10.45
2022-08-26T02:16:50.278Z,9.02
2022-08-26T02:19:23.493Z,7.65
2022-08-26T02:21:52.831Z,6.65
2022-08-26T02:24:22.319Z,14.18
2022-08-26T02:26:51.739Z,6.72
2022-08-26T02:29:29.787Z,9.07
2022-08-26T02:31:59.107Z,9.63
2022-08-26T02:34:31.419Z,7.03
2022-08-26T02:37:01.084Z,5.72
2022-08-26T02:39:29.607Z,8.68
2022-08-26T02:41:57.644Z,9.80
2022-08-26T02:44:25.853Z,7.78
2022-08-26T02:46:54.612Z,5.78
2022-08-26T02:49:23.759Z,8.50
2022-08-26T02:51:52.049Z,7.65
2022-08-26T02:54:21.514Z,7.00
2022-08-26T02:56:50.637Z,8.35
2022-08-26T02:59:18.266Z,8.40
2022-08-26T03:01:47.252Z,9.20
2022-08-26T03:04:15.331Z,7.93
2022-08-26T03:06:43.045Z,9.18
2022-08-26T03:09:18.651Z,9.48
2022-08-26T03:11:47.288Z,7.53
2022-08-26T03:14:15.176Z,9.23
2022-08-26T03:16:43.561Z,8.85
2022-08-26T03:19:11.464Z,10.90
2022-08-26T03:21:40.382Z,8.43
2022-08-26T03:24:11.041Z,12.07
2022-08-26T03:26:39.063Z,9.70
2022-08-26T03:29:25.876Z,6.47
2022-08-26T03:31:54.173Z,7.90
2022-08-26T03:34:22.581Z,10.73
2022-08-26T03:36:50.298Z,10.25
2022-08-26T03:39:18.004Z,7.03
2022-08-26T03:41:45.732Z,9.38
2022-08-26T03:44:13.457Z,12.45
2022-08-26T03:46:41.165Z,11.95
2022-08-26T03:49:12.031Z,9.40
2022-08-26T03:51:39.782Z,11.25
2022-08-26T03:54:09.774Z,6.53
2022-08-26T03:56:37.544Z,8.73
2022-08-26T03:59:07.840Z,8.75
2022-08-26T04:01:35.737Z,7.07
2022-08-26T04:04:03.850Z,9.77
2022-08-26T04:06:39.012Z,8.48
2022-08-26T04:09:08.815Z,9.15
2022-08-26T04:11:39.280Z,8.77
2022-08-26T04:14:08.761Z,8.65
2022-08-26T04:16:36.447Z,10.52
2022-08-26T04:19:04.247Z,9.32
2022-08-26T04:21:32.300Z,9.27
2022-08-26T04:24:00.033Z,9.10
2022-08-26T04:26:36.980Z,7.97
2022-08-26T04:29:09.462Z,10.88
2022-08-26T04:31:37.795Z,11.15
2022-08-26T04:34:07.044Z,10.85
2022-08-26T04:36:34.872Z,7.70
2022-08-26T04:39:05.265Z,11.70
2022-08-26T04:41:33.449Z,10.82
2022-08-26T04:44:02.421Z,10.20
2022-08-26T04:46:30.593Z,9.90
2022-08-26T04:48:58.599Z,6.80
2022-08-26T04:51:29.216Z,6.85
2022-08-26T04:53:59.530Z,12.23
2022-08-26T04:56:28.901Z,8.88
2022-08-26T04:58:56.900Z,12.52
2022-08-26T05:01:25.046Z,10.93
2022-08-26T05:03:52.990Z,7.75
2022-08-26T05:06:20.836Z,12.77
2022-08-26T05:08:49.800Z,8.90
2022-08-26T05:11:17.471Z,15.70
2022-08-26T05:13:46.104Z,10.52
2022-08-26T05:16:15.606Z,7.80
2022-08-26T05:18:44.351Z,8.95
2022-08-26T05:21:22.890Z,9.10
2022-08-26T05:24:00.994Z,9.90
2022-08-26T05:26:30.939Z,20.50
2022-08-26T05:28:58.843Z,12.02
2022-08-26T05:31:28.380Z,9.30
2022-08-26T05:33:57.608Z,11.38
2022-08-26T05:36:27.111Z,11.00
2022-08-26T05:38:56.283Z,8.75
2022-08-26T05:41:34.270Z,11.95
2022-08-26T05:44:05.394Z,13.07
2022-08-26T05:46:33.157Z,11.30
2022-08-26T05:49:02.239Z,10.45
2022-08-26T05:51:30.983Z,9.70
2022-08-26T05:53:59.146Z,12.10
2022-08-26T05:56:27.901Z,10.05
2022-08-26T05:58:56.404Z,10.57
2022-08-26T06:01:27.274Z,12.05
2022-08-26T06:04:01.383Z,7.65
2022-08-26T06:06:34.557Z,9.98
2022-08-26T06:09:03.427Z,9.90
2022-08-26T06:11:32.448Z,11.90
2022-08-26T06:14:04.408Z,9.73
2022-08-26T06:16:34.702Z,7.30
2022-08-26T06:19:03.404Z,8.35
2022-08-26T06:21:40.126Z,9.18
2022-08-26T06:24:28.349Z,6.32
2022-08-26T06:27:01.129Z,14.88
2022-08-26T06:29:29.501Z,6.00
2022-08-26T06:31:57.955Z,9.73
2022-08-26T06:34:30.513Z,11.02
2022-08-26T06:37:01.239Z,9.65
2022-08-26T06:39:31.076Z,12.53
2022-08-26T06:41:59.575Z,15.43
2022-08-26T06:44:27.430Z,9.07
2022-08-26T06:46:55.943Z,8.20
2022-08-26T06:49:26.896Z,9.35
2022-08-26T06:54:22.897Z,7.63
2022-08-26T06:56:50.592Z,10.93
2022-08-26T06:59:18.428Z,8.70
2022-08-26T07:01:46.403Z,8.57
2022-08-26T07:04:15.614Z,10.07
2022-08-26T07:06:48.815Z,8.15
2022-08-26T07:09:16.959Z,12.40
2022-08-26T07:11:45.305Z,9.93
2022-08-26T07:14:13.083Z,10.60
2022-08-26T07:16:41.323Z,10.70
2022-08-26T07:19:11.161Z,10.20
2022-08-26T07:21:42.962Z,18.08
2022-08-26T07:24:11.377Z,16.65
2022-08-26T07:26:42.882Z,12.40
2022-08-26T07:29:12.463Z,25.60
2022-08-26T07:31:42.769Z,15.80
2022-08-26T07:34:11.496Z,11.18
2022-08-26T07:36:39.266Z,10.00
2022-08-26T07:39:07.746Z,8.27
2022-08-26T07:41:36.718Z,9.75
2022-08-26T07:44:04.472Z,11.43
2022-08-26T07:46:32.834Z,6.32
2022-08-26T07:49:00.548Z,10.38
2022-08-26T07:51:28.581Z,10.05
2022-08-26T07:53:56.359Z,8.18
2022-08-26T07:56:24.066Z,13.25
2022-08-26T07:58:53.248Z,10.45
2022-08-26T08:01:23.534Z,14.95
2022-08-26T08:03:51.823Z,12.20
2022-08-26T08:06:20.682Z,11.85
2022-08-26T08:08:51.564Z,11.00
2022-08-26T08:11:22.790Z,8.45
2022-08-26T08:13:52.372Z,11.35
2022-08-26T08:16:24.553Z,11.77
2022-08-26T08:18:52.334Z,16.25
2022-08-26T08:21:22.084Z,10.55
2022-08-26T08:26:19.577Z,8.40
2022-08-26T08:28:47.983Z,10.82
2022-08-26T08:31:38.604Z,11.63
2022-08-26T08:34:08.103Z,9.50
2022-08-26T08:36:35.871Z,12.82
2022-08-26T08:39:04.327Z,13.77
2022-08-26T08:41:54.120Z,10.02
2022-08-26T08:44:30.925Z,12.85
2022-08-26T08:47:16.089Z,10.38
2022-08-26T08:49:44.882Z,11.65
2022-08-26T08:52:26.785Z,9.80
2022-08-26T08:57:31.537Z,11.80
2022-08-26T09:00:19.544Z,13.57
2022-08-26T09:02:50.242Z,11.00
2022-08-26T09:05:18.077Z,11.50
2022-08-26T09:07:52.155Z,10.52
2022-08-26T09:10:32.195Z,10.38
2022-08-26T09:13:00.552Z,11.27
2022-08-26T09:15:37.205Z,14.52
2022-08-26T09:18:24.356Z,11.30
2022-08-26T09:21:03.567Z,12.20
2022-08-26T09:23:32.213Z,8.75
2022-08-26T09:26:02.037Z,12.07
2022-08-26T09:28:30.864Z,11.55
2022-08-26T09:31:18.759Z,10.43
2022-08-26T09:33:46.440Z,7.97
2022-08-26T09:36:36.535Z,11.65
2022-08-26T09:39:28.271Z,10.93
2022-08-26T09:42:03.159Z,9.40
2022-08-26T09:44:31.341Z,11.23
2022-08-26T09:47:00.653Z,11.60
2022-08-26T09:49:32.679Z,12.20
2022-08-26T09:52:06.314Z,10.80
2022-08-26T09:54:34.075Z,13.07
2022-08-26T09:57:13.049Z,9.52
2022-08-26T09:59:41.053Z,11.30
2022-08-26T10:02:24.504Z,15.93
2022-08-26T10:04:54.305Z,12.48
2022-08-26T10:07:51.160Z,9.48
2022-08-26T10:10:22.509Z,10.20
2022-08-26T10:12:53.091Z,13.82
2022-08-26T10:15:22.395Z,14.10
2022-08-26T10:17:53.247Z,11.45
2022-08-26T10:22:13.827Z,11.13
2022-08-26T10:24:47.711Z,11.13
2022-08-26T10:27:51.190Z,10.68
2022-08-26T10:30:27.587Z,13.55
2022-08-26T10:33:00.656Z,14.43
2022-08-26T10:38:00.454Z,16.20
2022-08-26T10:40:51.811Z,11.35
2022-08-26T10:43:27.891Z,16.45
2022-08-26T10:46:09.969Z,14.15
2022-08-26T10:49:08.910Z,14.93
2022-08-26T10:51:45.614Z,13.50
2022-08-26T10:54:43.732Z,15.00
2022-08-26T10:57:23.537Z,15.05
2022-08-26T11:00:38.334Z,15.75
2022-08-26T11:03:21.727Z,12.45
2022-08-26T11:06:27.948Z,15.00
2022-08-26T11:09:03.655Z,16.98
2022-08-26T11:11:40.078Z,13.45
2022-08-26T11:14:11.728Z,15.30
2022-08-26T11:16:45.473Z,9.93
2022-08-26T11:19:57.060Z,18.40
2022-08-26T11:22:36.329Z,16.60
2022-08-26T11:25:11.401Z,17.38
2022-08-26T11:27:40.037Z,14.20
2022-08-26T11:30:13.353Z,11.90
2022-08-26T11:32:40.904Z,15.90
2022-08-26T11:35:17.704Z,13.50
2022-08-26T11:37:48.007Z,12.52
2022-08-26T11:40:20.279Z,15.15
2022-08-26T11:43:06.198Z,9.27
2022-08-26T11:45:46.497Z,12.30
2022-08-26T11:48:29.637Z,14.15
2022-08-26T11:51:00.581Z,15.23
2022-08-26T11:53:30.251Z,16.23
2022-08-26T11:55:59.464Z,13.52
2022-08-26T11:58:28.787Z,14.20
2022-08-26T12:01:09.782Z,14.25
2022-08-26T12:03:44.802Z,11.23
2022-08-26T12:06:21.609Z,13.45
2022-08-26T12:08:50.254Z,15.00
2022-08-26T12:11:24.157Z,15.20
2022-08-26T12:14:03.643Z,13.00
2022-08-26T12:16:38.098Z,13.05
2022-08-26T12:19:26.379Z,15.38
2022-08-26T12:22:09.887Z,15.73
2022-08-26T12:24:47.754Z,16.13
2022-08-26T12:27:24.365Z,10.85
2022-08-26T12:30:08.799Z,13.82
2022-08-26T12:32:52.830Z,13.85
2022-08-26T12:35:26.909Z,12.82
2022-08-26T12:37:55.248Z,12.23
2022-08-26T12:40:31.555Z,14.73
2022-08-26T12:43:01.939Z,15.88
2022-08-26T12:45:36.840Z,11.77
2022-08-26T12:48:27.048Z,17.75
2022-08-26T12:50:54.896Z,11.95
2022-08-26T12:53:28.392Z,12.52
2022-08-26T12:56:00.461Z,11.23
2022-08-26T12:58:32.154Z,10.35
2022-08-26T13:03:37.625Z,10.85
2022-08-26T13:06:24.608Z,12.10
2022-08-26T13:08:55.080Z,15.25
2022-08-26T13:11:30.514Z,13.70
2022-08-26T13:14:06.944Z,12.27
2022-08-26T13:16:36.095Z,9.40
2022-08-26T13:19:10.467Z,14.95
2022-08-26T13:21:49.386Z,15.55
2022-08-26T13:24:20.525Z,13.63
2022-08-26T13:26:49.405Z,12.57
2022-08-26T13:29:17.645Z,14.93
2022-08-26T13:34:15.164Z,11.25
2022-08-26T13:36:44.460Z,11.10
2022-08-26T13:39:12.921Z,20.10
2022-08-26T13:41:40.650Z,15.00
2022-08-26T13:44:08.035Z,13.30
2022-08-26T13:46:35.750Z,14.98
2022-08-26T13:49:03.669Z,10.65
2022-08-26T13:51:31.305Z,10.07
2022-08-26T13:53:58.872Z,13.77
2022-08-26T13:56:29.553Z,10.23
2022-08-26T13:58:58.473Z,13.25
2022-08-26T14:01:27.336Z,8.63
2022-08-26T14:03:55.137Z,13.43
2022-08-26T14:06:22.764Z,12.40
2022-08-26T14:08:50.310Z,12.27
2022-08-26T14:11:19.061Z,15.07
2022-08-26T14:13:46.438Z,11.40
2022-08-26T14:16:27.102Z,10.55
2022-08-26T14:18:54.686Z,11.73
2022-08-26T14:21:23.285Z,12.48
2022-08-26T14:23:50.739Z,9.40
2022-08-26T14:26:28.851Z,9.98
2022-08-26T14:29:01.299Z,13.13
2022-08-26T14:34:07.575Z,9.98
2022-08-26T14:36:36.105Z,10.23
2022-08-26T14:39:09.721Z,10.75
2022-08-26T14:41:53.606Z,11.45
2022-08-26T14:44:28.000Z,15.20
2022-08-26T14:46:55.641Z,12.88
2022-08-26T14:49:25.309Z,13.23
2022-08-26T14:51:53.269Z,10.50
2022-08-26T14:54:21.290Z,12.02
2022-08-26T14:56:53.914Z,15.13
2022-08-26T14:59:25.482Z,9.73
2022-08-26T15:04:23.062Z,11.60
2022-08-26T15:06:52.036Z,13.20
2022-08-26T15:09:20.063Z,10.05
2022-08-26T15:11:47.733Z,10.75
2022-08-26T15:14:19.568Z,14.40
2022-08-26T15:16:49.725Z,9.65
2022-08-26T15:19:17.958Z,12.43
2022-08-26T15:21:47.150Z,17.92
2022-08-26T15:24:17.385Z,11.55
2022-08-26T15:26:47.332Z,12.55
2022-08-26T15:29:15.307Z,11.35
2022-08-26T15:31:43.071Z,13.35
2022-08-26T15:34:16.381Z,16.55
2022-08-26T15:36:46.519Z,12.45
2022-08-26T15:39:15.659Z,15.70
2022-08-26T15:41:43.301Z,14.45
2022-08-26T15:44:11.365Z,12.88
2022-08-26T15:46:39.283Z,11.73
2022-08-26T15:49:07.723Z,12.73
2022-08-26T15:51:45.456Z,11.80
2022-08-26T15:54:16.646Z,12.63
2022-08-26T15:56:45.566Z,17.00
2022-08-26T15:59:15.947Z,11.80
2022-08-26T16:01:43.625Z,17.02
2022-08-26T16:04:11.555Z,11.20
2022-08-26T16:06:40.935Z,15.38
2022-08-26T16:09:10.695Z,13.20
2022-08-26T16:11:38.157Z,11.93
2022-08-26T16:14:06.540Z,9.38
2022-08-26T16:16:36.892Z,8.68
2022-08-26T16:19:07.398Z,13.30
2022-08-26T16:21:35.471Z,15.10
2022-08-26T16:24:04.488Z,13.88
2022-08-26T16:26:34.845Z,12.65
2022-08-26T16:29:04.130Z,11.20
2022-08-26T16:31:31.577Z,9.88
2022-08-26T16:33:59.019Z,12.57
2022-08-26T16:36:26.494Z,11.63
2022-08-26T16:38:56.354Z,11.40
2022-08-26T16:41:25.819Z,13.38
2022-08-26T16:43:54.081Z,13.63
2022-08-26T16:46:25.658Z,12.55
2022-08-26T16:48:55.280Z,14.60
2022-08-26T16:51:24.817Z,11.77
2022-08-26T16:53:53.497Z,13.35
2022-08-26T16:56:24.270Z,13.55
2022-08-26T16:59:02.195Z,10.68
2022-08-26T17:01:29.652Z,10.93
2022-08-26T17:03:57.277Z,13.75
2022-08-26T17:06:24.816Z,10.73
2022-08-26T17:08:52.502Z,9.90
2022-08-26T17:11:19.930Z,12.45
2022-08-26T17:13:47.369Z,12.60
2022-08-26T17:16:15.296Z,18.67
2022-08-26T17:18:42.809Z,14.25
2022-08-26T17:21:12.625Z,11.70
2022-08-26T17:23:41.703Z,11.77
2022-08-26T17:26:10.654Z,13.45
2022-08-26T17:28:39.073Z,10.45
2022-08-26T17:31:07.392Z,12.30
2022-08-26T17:33:34.762Z,10.68
2022-08-26T17:36:02.427Z,14.63
2022-08-26T17:38:29.977Z,11.02
2022-08-26T17:40:58.141Z,18.48
2022-08-26T17:43:26.744Z,15.07
2022-08-26T17:46:06.773Z,14.75
2022-08-26T17:48:36.658Z,11.93
2022-08-26T17:51:11.035Z,17.30
2022-08-26T17:53:39.496Z,16.25
2022-08-26T17:56:12.501Z,17.58
2022-08-26T17:58:40.846Z,12.63
2022-08-26T18:01:15.657Z,11.88
2022-08-26T18:03:43.510Z,13.75
2022-08-26T18:06:12.953Z,21.42
2022-08-26T18:08:41.340Z,16.52
2022-08-26T18:11:10.919Z,15.68
2022-08-26T18:13:38.645Z,18.48
2022-08-26T18:16:15.878Z,21.50
2022-08-26T18:18:43.824Z,17.70
2022-08-26T18:21:13.765Z,15.95
2022-08-26T18:23:41.385Z,17.42
2022-08-26T18:26:08.842Z,14.75
2022-08-26T18:28:39.791Z,13.45
2022-08-26T18:31:08.498Z,13.73
2022-08-26T18:33:35.976Z,12.65
2022-08-26T18:36:04.352Z,19.83
2022-08-26T18:38:31.775Z,19.83
2022-08-26T18:41:04.695Z,17.17
2022-08-26T18:43:32.076Z,19.70
2022-08-26T18:46:08.718Z,15.60
2022-08-26T18:48:37.234Z,13.52
2022-08-26T18:51:04.811Z,16.05
2022-08-26T18:53:33.023Z,24.02
2022-08-26T18:56:01.867Z,21.23
2022-08-26T18:58:29.199Z,18.80
2022-08-26T19:00:56.619Z,15.05
2022-08-26T19:03:23.984Z,15.30
2022-08-26T19:05:51.403Z,14.75
2022-08-26T19:08:18.765Z,19.58
2022-08-26T19:10:46.120Z,17.15
2022-08-26T19:13:13.861Z,20.80
2022-08-26T19:15:45.109Z,16.48
2022-08-26T19:18:17.694Z,19.20
2022-08-26T19:20:46.905Z,17.05
2022-08-26T19:23:30.903Z,23.65
2022-08-26T19:26:03.015Z,21.73
2022-08-26T19:28:30.698Z,29.00
2022-08-26T19:30:58.467Z,34.38
2022-08-26T19:33:26.810Z,22.85
2022-08-26T19:35:55.525Z,18.85
2022-08-26T19:38:23.606Z,16.05
2022-08-26T19:40:51.036Z,14.40
2022-08-26T19:48:14.500Z,13.20
2022-08-26T19:50:42.278Z,17.10
2022-08-26T19:53:10.121Z,16.40
2022-08-26T19:55:37.731Z,13.98
2022-08-26T19:58:05.522Z,15.18
2022-08-26T20:00:34.575Z,12.65
2022-08-26T20:03:02.924Z,15.93
2022-08-26T20:05:30.667Z,15.57
2022-08-26T20:07:58.334Z,12.30
2022-08-26T20:10:26.149Z,14.07
2022-08-26T20:12:54.048Z,18.48
2022-08-26T20:15:23.040Z,14.65
2022-08-26T20:17:51.508Z,11.90
2022-08-26T20:20:37.695Z,11.65
2022-08-26T20:23:06.108Z,11.98
2022-08-26T20:25:34.150Z,15.45
2022-08-26T20:28:02.199Z,13.45
2022-08-26T20:30:30.072Z,18.30
2022-08-26T20:32:57.807Z,13.20
2022-08-26T20:35:25.512Z,15.43
2022-08-26T20:37:53.241Z,13.55
2022-08-26T20:40:22.165Z,16.02
2022-08-26T20:42:49.901Z,12.95
2022-08-26T20:45:17.627Z,12.82
2022-08-26T20:47:45.349Z,14.00
2022-08-26T20:50:13.020Z,15.00
2022-08-26T20:52:40.716Z,16.90
2022-08-26T20:55:08.670Z,20.02
2022-08-26T20:57:37.362Z,17.38
2022-08-26T21:00:06.328Z,15.20
2022-08-26T21:02:34.703Z,15.90
2022-08-26T21:05:02.438Z,11.35
2022-08-26T21:07:30.228Z,14.57
2022-08-26T21:09:58.244Z,14.68
2022-08-26T21:12:27.124Z,12.35
2022-08-26T21:14:54.977Z,16.95
2022-08-26T21:17:22.813Z,13.38
2022-08-26T21:19:50.560Z,10.37
2022-08-26T21:22:18.214Z,12.73
2022-08-26T21:24:45.918Z,14.00
2022-08-26T21:27:13.903Z,13.52
2022-08-26T21:29:49.072Z,14.13
2022-08-26T21:32:19.753Z,15.15
2022-08-26T21:34:47.492Z,11.07
2022-08-26T21:37:16.546Z,12.02
2022-08-26T21:39:44.767Z,12.23
2022-08-26T21:42:12.457Z,11.50
2022-08-26T21:44:40.166Z,14.05
2022-08-26T21:47:07.843Z,14.77
2022-08-26T21:49:36.173Z,15.73
2022-08-26T21:52:04.728Z,14.38
2022-08-26T21:54:32.702Z,14.15
2022-08-26T21:57:00.466Z,11.52
2022-08-26T21:59:28.206Z,12.70
2022-08-26T22:01:56.897Z,13.40
2022-08-26T22:04:25.035Z,12.90
2022-08-26T22:06:53.737Z,13.10
2022-08-26T22:09:23.326Z,13.32
2022-08-26T22:11:51.798Z,18.58
2022-08-26T22:14:22.036Z,12.88
2022-08-26T22:16:50.700Z,15.48
2022-08-26T22:19:20.151Z,11.45
2022-08-26T22:21:50.127Z,12.52
2022-08-26T22:24:21.908Z,12.18
2022-08-26T22:29:18.724Z,12.23
2022-08-26T22:31:46.472Z,12.75
2022-08-26T22:34:17.097Z,13.65
2022-08-26T22:36:45.944Z,14.25
2022-08-26T22:39:14.256Z,13.32
2022-08-26T22:41:42.968Z,16.27
2022-08-26T22:44:11.818Z,14.00
2022-08-26T22:46:39.897Z,14.10
2022-08-26T22:49:08.626Z,12.95
2022-08-26T22:51:36.417Z,13.32
2022-08-26T22:54:04.720Z,13.15
2022-08-26T22:56:32.430Z,15.43
2022-08-26T22:59:00.109Z,10.38
2022-08-26T23:01:27.860Z,11.77
2022-08-26T23:03:55.762Z,11.52
2022-08-26T23:06:23.466Z,13.52
2022-08-26T23:08:51.160Z,13.77
2022-08-26T23:11:19.333Z,11.95
2022-08-26T23:13:46.963Z,16.27
2022-08-26T23:16:14.625Z,14.07
2022-08-26T23:18:42.451Z,17.27
2022-08-26T23:21:10.740Z,14.90
2022-08-26T23:23:38.502Z,11.10
2022-08-26T23:26:06.999Z,13.10
2022-08-26T23:28:38.383Z,12.93
2022-08-26T23:31:06.210Z,13.07
2022-08-26T23:33:52.881Z,13.98
2022-08-26T23:36:22.775Z,11.25
2022-08-26T23:38:52.767Z,12.30
2022-08-26T23:41:24.210Z,11.70
2022-08-26T23:43:52.232Z,17.55
2022-08-26T23:46:20.316Z,11.13
2022-08-26T23:48:48.308Z,9.70
2022-08-26T23:51:34.443Z,10.45
2022-08-26T23:54:02.171Z,10.77
2022-08-26T23:56:29.898Z,13.48
2022-08-26T23:58:57.612Z,14.25
